createdAt,value
2018-04-10T00:00:29.817Z,12.33
2018-04-10T00:02:56.039Z,12.40
2018-04-10T00:05:22.309Z,12.40
2018-04-10T00:07:48.546Z,12.70
2018-04-10T00:10:14.869Z,12.33
2018-04-10T00:12:41.069Z,12.57
2018-04-10T00:15:07.623Z,13.03
2018-04-10T00:17:33.817Z,12.07
2018-04-10T00:20:00.103Z,12.00
2018-04-10T00:22:26.388Z,12.37
2018-04-10T00:27:25.589Z,11.63
2018-04-10T00:29:51.960Z,11.80
2018-04-10T00:32:18.203Z,11.67
2018-04-10T00:34:44.527Z,11.50
2018-04-10T00:37:10.703Z,11.53
2018-04-10T00:39:37.034Z,11.60
2018-04-10T00:42:03.344Z,11.40
2018-04-10T00:44:29.624Z,11.07
2018-04-10T00:46:55.915Z,11.50
2018-04-10T00:49:22.174Z,11.77
2018-04-10T00:51:48.545Z,11.77
2018-04-10T00:54:15.891Z,10.90
2018-04-10T00:56:43.006Z,10.80
2018-04-10T00:59:09.291Z,11.67
2018-04-10T01:01:36.460Z,12.00
2018-04-10T01:04:02.814Z,11.07
2018-04-10T01:06:28.985Z,10.23
2018-04-10T01:11:49.150Z,12.17
2018-04-10T01:14:15.448Z,11.13
2018-04-10T01:16:41.764Z,11.07
2018-04-10T01:19:07.925Z,10.90
2018-04-10T01:21:35.306Z,11.70
2018-04-10T01:24:01.529Z,11.97
2018-04-10T01:26:27.939Z,11.87
2018-04-10T01:28:54.327Z,11.80
2018-04-10T01:31:20.643Z,12.07
2018-04-10T01:33:47.704Z,11.63
2018-04-10T01:36:13.904Z,11.90
2018-04-10T01:38:40.902Z,10.57
2018-04-10T01:41:07.186Z,11.40
2018-04-10T01:43:34.135Z,12.53
2018-04-10T01:46:01.176Z,11.73
2018-04-10T01:48:28.287Z,11.40
2018-04-10T01:50:54.467Z,11.27
2018-04-10T01:53:20.815Z,10.83
2018-04-10T01:55:47.196Z,11.60
2018-04-10T01:58:13.489Z,11.43
2018-04-10T02:00:40.072Z,10.80
2018-04-10T02:03:07.116Z,10.63
2018-04-10T02:05:34.073Z,10.87
2018-04-10T02:08:01.147Z,10.37
2018-04-10T02:10:27.539Z,11.43
2018-04-10T02:12:54.558Z,11.30
2018-04-10T02:15:20.780Z,10.07
2018-04-10T02:17:46.998Z,10.20
2018-04-10T02:20:13.381Z,10.40
2018-04-10T02:22:39.732Z,10.10
2018-04-10T02:25:06.031Z,10.10
2018-04-10T02:27:32.336Z,9.53
2018-04-10T02:30:00.081Z,10.80
2018-04-10T02:32:26.380Z,9.27
2018-04-10T02:34:52.621Z,9.97
2018-04-10T02:37:19.113Z,9.93
2018-04-10T02:39:46.170Z,9.70
2018-04-10T02:42:12.441Z,10.23
2018-04-10T02:44:38.825Z,9.77
2018-04-10T02:47:05.166Z,9.10
2018-04-10T02:49:31.498Z,9.80
2018-04-10T02:51:57.677Z,9.23
2018-04-10T02:54:24.088Z,9.27
2018-04-10T02:56:50.420Z,9.80
2018-04-10T02:59:16.750Z,9.30
2018-04-10T03:01:43.029Z,9.03
2018-04-10T03:04:10.083Z,8.50
2018-04-10T03:06:36.412Z,9.47
2018-04-10T03:09:02.679Z,9.30
2018-04-10T03:11:29.011Z,10.80
2018-04-10T03:13:55.193Z,9.30
2018-04-10T03:16:21.520Z,9.50
2018-04-10T03:18:47.816Z,9.33
2018-04-10T03:21:14.181Z,9.07
2018-04-10T03:23:40.406Z,9.63
2018-04-10T03:26:06.728Z,8.60
2018-04-10T03:28:33.661Z,8.70
2018-04-10T03:31:15.607Z,8.73
2018-04-10T03:33:41.947Z,9.37
2018-04-10T03:36:08.268Z,8.83
2018-04-10T03:38:34.578Z,8.40
2018-04-10T03:41:00.901Z,9.70
2018-04-10T03:43:27.088Z,8.90
2018-04-10T03:45:53.442Z,8.57
2018-04-10T03:48:19.769Z,8.43
2018-04-10T03:50:46.678Z,8.20
2018-04-10T03:53:14.381Z,7.60
2018-04-10T03:55:40.663Z,7.73
2018-04-10T03:58:06.966Z,8.30
2018-04-10T04:00:33.333Z,8.17
2018-04-10T04:03:01.132Z,8.77
2018-04-10T04:05:27.448Z,7.30
2018-04-10T04:07:55.143Z,7.83
2018-04-10T04:10:21.397Z,8.03
2018-04-10T04:12:47.635Z,8.60
2018-04-10T04:15:15.203Z,8.00
2018-04-10T04:17:41.509Z,7.93
2018-04-10T04:20:20.245Z,8.30
2018-04-10T04:22:46.540Z,8.70
2018-04-10T04:25:12.792Z,7.80
2018-04-10T04:27:39.090Z,7.37
2018-04-10T04:30:05.391Z,7.93
2018-04-10T04:32:31.714Z,8.13
2018-04-10T04:34:58.690Z,7.70
2018-04-10T04:37:25.039Z,8.10
2018-04-10T04:39:51.486Z,8.53
2018-04-10T04:42:17.857Z,8.40
2018-04-10T04:44:44.099Z,8.80
2018-04-10T04:47:10.410Z,8.90
2018-04-10T04:49:36.753Z,8.10
2018-04-10T04:52:03.054Z,7.73
2018-04-10T04:54:29.987Z,8.77
2018-04-10T04:56:56.188Z,7.93
2018-04-10T04:59:22.375Z,8.23
2018-04-10T05:01:48.618Z,7.70
2018-04-10T05:04:14.999Z,8.50
2018-04-10T05:06:41.370Z,8.60
2018-04-10T05:09:07.574Z,8.37
2018-04-10T05:11:34.801Z,9.13
2018-04-10T05:14:01.784Z,9.60
2018-04-10T05:16:28.155Z,9.50
2018-04-10T05:18:54.498Z,9.37
2018-04-10T05:21:20.846Z,7.90
2018-04-10T05:23:47.120Z,8.60
2018-04-10T05:26:13.687Z,7.97
2018-04-10T05:28:39.966Z,8.27
2018-04-10T05:31:06.382Z,8.97
2018-04-10T05:33:33.341Z,8.70
2018-04-10T05:35:59.668Z,8.90
2018-04-10T05:38:26.048Z,9.30
2018-04-10T05:40:52.484Z,8.57
2018-04-10T05:43:18.744Z,9.17
2018-04-10T05:45:45.807Z,9.20
2018-04-10T05:48:12.242Z,10.10
2018-04-10T05:50:38.468Z,10.30
2018-04-10T05:53:04.754Z,9.50
2018-04-10T05:55:30.996Z,9.63
2018-04-10T05:57:58.155Z,10.97
2018-04-10T06:00:25.273Z,10.30
2018-04-10T06:02:53.035Z,11.37
2018-04-10T06:05:20.702Z,11.43
2018-04-10T06:07:48.312Z,13.33
2018-04-10T06:10:14.610Z,10.80
2018-04-10T06:12:41.543Z,11.17
2018-04-10T06:15:08.049Z,11.90
2018-04-10T06:17:34.239Z,10.70
2018-04-10T06:20:00.517Z,11.10
2018-04-10T06:22:26.765Z,11.50
2018-04-10T06:24:53.751Z,11.00
2018-04-10T06:27:20.069Z,11.00
2018-04-10T06:29:46.436Z,11.33
2018-04-10T06:32:12.702Z,11.17
2018-04-10T06:34:39.756Z,10.87
2018-04-10T06:37:06.188Z,11.00
2018-04-10T06:39:33.404Z,11.50
2018-04-10T06:42:01.673Z,11.40
2018-04-10T06:44:28.028Z,11.47
2018-04-10T06:46:55.048Z,11.00
2018-04-10T06:49:21.475Z,10.80
2018-04-10T06:51:47.719Z,11.10
2018-04-10T06:54:14.150Z,11.60
2018-04-10T06:56:41.139Z,12.97
2018-04-10T06:59:07.551Z,14.67
2018-04-10T07:01:35.166Z,12.37
2018-04-10T07:04:01.490Z,14.20
2018-04-10T07:06:27.839Z,13.60
2018-04-10T07:08:54.207Z,13.90
2018-04-10T07:11:20.497Z,13.47
2018-04-10T07:13:46.725Z,14.63
2018-04-10T07:16:13.051Z,13.73
2018-04-10T07:18:39.572Z,14.90
2018-04-10T07:21:05.903Z,16.07
2018-04-10T07:26:32.087Z,15.70
2018-04-10T07:28:59.059Z,14.10
2018-04-10T07:31:25.287Z,15.47
2018-04-10T07:33:51.519Z,16.07
2018-04-10T07:36:17.736Z,16.83
2018-04-10T07:38:43.973Z,16.57
2018-04-10T07:41:10.143Z,17.30
2018-04-10T07:43:36.491Z,16.90
2018-04-10T07:46:04.065Z,15.97
2018-04-10T07:48:30.976Z,17.30
2018-04-10T07:50:57.375Z,16.93
2018-04-10T07:53:23.719Z,17.80
2018-04-10T07:55:49.962Z,17.43
2018-04-10T07:58:16.273Z,18.70
2018-04-10T08:00:42.544Z,20.63
2018-04-10T08:03:09.665Z,19.60
2018-04-10T08:05:35.909Z,18.80
2018-04-10T08:08:03.134Z,21.27
2018-04-10T08:10:29.670Z,21.80
2018-04-10T08:12:55.965Z,21.43
2018-04-10T08:15:22.293Z,21.40
2018-04-10T08:17:48.477Z,23.80
2018-04-10T08:20:14.903Z,25.00
2018-04-10T08:22:41.134Z,24.57
2018-04-10T08:25:07.570Z,23.50
2018-04-10T08:27:34.542Z,23.77
2018-04-10T08:30:01.018Z,22.17
2018-04-10T08:32:27.458Z,23.83
2018-04-10T08:34:53.840Z,23.30
2018-04-10T08:37:19.992Z,24.60
2018-04-10T08:39:46.275Z,24.20
2018-04-10T08:42:12.772Z,24.77
2018-04-10T08:44:38.980Z,24.80
2018-04-10T08:47:05.256Z,26.47
2018-04-10T08:49:32.286Z,26.73
2018-04-10T08:51:58.675Z,28.63
2018-04-10T08:54:24.961Z,29.30
2018-04-10T08:56:51.919Z,30.33
2018-04-10T08:59:18.984Z,30.57
2018-04-10T09:01:45.417Z,32.37
2018-04-10T09:04:11.725Z,30.30
2018-04-10T09:06:39.106Z,31.67
2018-04-10T09:09:05.362Z,32.80
2018-04-10T09:11:31.819Z,31.70
2018-04-10T09:13:58.807Z,34.30
2018-04-10T09:16:25.001Z,33.13
2018-04-10T09:18:52.127Z,35.27
2018-04-10T09:21:18.465Z,36.10
2018-04-10T09:23:44.716Z,33.70
2018-04-10T09:26:11.210Z,33.30
2018-04-10T09:28:37.423Z,32.87
2018-04-10T09:31:03.631Z,32.50
2018-04-10T09:33:29.966Z,32.20
2018-04-10T09:35:56.343Z,33.00
2018-04-10T09:38:22.646Z,34.10
2018-04-10T09:40:48.997Z,34.07
2018-04-10T09:43:15.286Z,35.30
2018-04-10T09:45:41.902Z,33.03
2018-04-10T09:48:08.091Z,35.23
2018-04-10T09:50:34.335Z,33.20
2018-04-10T09:53:01.273Z,34.50
2018-04-10T09:55:27.686Z,32.27
2018-04-10T09:57:54.016Z,32.90
2018-04-10T10:00:26.547Z,28.90
2018-04-10T10:02:52.828Z,30.43
2018-04-10T10:05:19.142Z,31.77
2018-04-10T10:07:45.377Z,30.53
2018-04-10T10:10:11.703Z,31.17
2018-04-10T10:12:38.028Z,29.17
2018-04-10T10:15:04.305Z,32.60
2018-04-10T10:17:30.531Z,32.33
2018-04-10T10:19:57.693Z,30.47
2018-04-10T10:22:23.839Z,31.70
2018-04-10T10:24:50.001Z,30.93
2018-04-10T10:27:16.334Z,31.83
2018-04-10T10:29:42.949Z,30.47
2018-04-10T10:32:09.174Z,31.00
2018-04-10T10:34:35.383Z,28.47
2018-04-10T10:37:01.582Z,29.07
2018-04-10T10:39:27.858Z,29.07
2018-04-10T10:41:54.078Z,30.20
2018-04-10T10:44:20.357Z,27.97
2018-04-10T10:46:47.405Z,27.73
2018-04-10T10:49:14.510Z,26.83
2018-04-10T10:51:40.690Z,30.60
2018-04-10T10:54:07.786Z,27.10
2018-04-10T10:56:35.775Z,25.80
2018-04-10T10:59:02.099Z,26.60
2018-04-10T11:01:28.297Z,26.13
2018-04-10T11:03:54.690Z,25.97
2018-04-10T11:06:20.964Z,25.43
2018-04-10T11:08:47.344Z,27.63
2018-04-10T11:11:14.551Z,26.10
2018-04-10T11:13:40.847Z,26.57
2018-04-10T11:16:07.177Z,26.93
2018-04-10T11:18:34.497Z,28.00
2018-04-10T11:21:01.456Z,26.53
2018-04-10T11:23:27.838Z,26.07
2018-04-10T11:25:54.124Z,26.93
2018-04-10T11:28:20.438Z,26.60
2018-04-10T11:30:47.523Z,23.07
2018-04-10T11:33:13.841Z,22.47
2018-04-10T11:35:40.046Z,21.87
2018-04-10T11:38:06.992Z,21.00
2018-04-10T11:40:34.028Z,19.57
2018-04-10T11:43:01.143Z,20.57
2018-04-10T11:45:27.450Z,24.73
2018-04-10T11:47:53.710Z,19.87
2018-04-10T11:50:20.041Z,20.43
2018-04-10T11:52:46.461Z,24.13
2018-04-10T11:55:12.835Z,23.13
2018-04-10T11:57:39.855Z,20.00
2018-04-10T12:00:06.169Z,20.53
2018-04-10T12:02:32.565Z,21.03
2018-04-10T12:04:58.774Z,21.07
2018-04-10T12:07:25.055Z,17.73
2018-04-10T12:09:51.293Z,18.97
2018-04-10T12:12:17.609Z,19.43
2018-04-10T12:14:44.051Z,15.03
2018-04-10T12:17:10.313Z,13.33
2018-04-10T12:19:37.344Z,12.63
2018-04-10T12:22:03.596Z,12.90
2018-04-10T12:24:30.560Z,13.37
2018-04-10T12:26:56.811Z,12.50
2018-04-10T12:29:23.182Z,10.17
2018-04-10T12:31:49.646Z,10.27
2018-04-10T12:34:16.288Z,10.10
2018-04-10T12:36:42.619Z,13.00
2018-04-10T12:39:09.616Z,11.67
2018-04-10T12:41:36.140Z,13.50
2018-04-10T12:44:02.385Z,12.67
2018-04-10T12:46:29.414Z,16.50
2018-04-10T12:48:55.859Z,14.90
2018-04-10T12:51:22.105Z,14.53
2018-04-10T12:53:49.073Z,14.33
2018-04-10T12:56:15.317Z,14.10
2018-04-10T12:58:41.531Z,18.63
2018-04-10T13:01:07.715Z,15.73
2018-04-10T13:03:33.957Z,13.93
2018-04-10T13:06:01.132Z,15.43
2018-04-10T13:08:27.281Z,16.63
2018-04-10T13:10:53.466Z,9.00
2018-04-10T13:13:20.473Z,5.73
2018-04-10T13:15:46.673Z,5.50
2018-04-10T13:18:12.920Z,5.33
2018-04-10T13:20:39.097Z,5.73
2018-04-10T13:23:06.073Z,5.50
2018-04-10T13:25:32.307Z,5.80
2018-04-10T13:27:58.576Z,5.30
2018-04-10T13:30:24.776Z,5.90
2018-04-10T13:32:51.079Z,5.27
2018-04-10T13:35:17.358Z,5.40
2018-04-10T13:37:43.553Z,5.60
2018-04-10T13:40:09.792Z,6.37
2018-04-10T13:42:36.033Z,6.13
2018-04-10T13:45:02.243Z,5.73
2018-04-10T13:47:28.847Z,5.23
2018-04-10T13:49:55.446Z,5.37
2018-04-10T13:52:21.834Z,6.03
2018-04-10T13:54:47.992Z,6.03
2018-04-10T13:57:14.333Z,12.03
2018-04-10T13:59:41.286Z,17.97
2018-04-10T14:02:08.317Z,17.73
2018-04-10T14:04:34.522Z,19.93
2018-04-10T14:07:07.765Z,26.70
2018-04-10T14:09:34.744Z,26.37
2018-04-10T14:12:00.956Z,26.50
2018-04-10T14:14:27.197Z,28.00
2018-04-10T14:16:53.387Z,27.00
2018-04-10T14:19:20.414Z,25.30
2018-04-10T14:21:46.674Z,25.37
2018-04-10T14:24:20.106Z,25.30
2018-04-10T14:26:46.334Z,23.10
2018-04-10T14:29:12.599Z,22.23
2018-04-10T14:31:39.063Z,22.70
2018-04-10T14:34:05.378Z,20.90
2018-04-10T14:36:32.390Z,20.20
2018-04-10T14:38:58.627Z,22.30
2018-04-10T14:41:24.871Z,21.20
2018-04-10T14:43:51.818Z,21.27
2018-04-10T14:46:18.943Z,18.07
2018-04-10T14:48:45.192Z,19.60
2018-04-10T14:51:11.562Z,19.87
2018-04-10T14:53:37.830Z,18.47
2018-04-10T14:56:04.141Z,15.37
2018-04-10T14:58:30.421Z,15.80
2018-04-10T15:00:57.394Z,16.23
2018-04-10T15:03:23.667Z,16.43
2018-04-10T15:05:49.989Z,17.47
2018-04-10T15:08:16.321Z,20.20
2018-04-10T15:10:42.601Z,14.30
2018-04-10T15:13:08.818Z,14.10
2018-04-10T15:15:35.136Z,14.90
2018-04-10T15:18:02.184Z,15.97
2018-04-10T15:20:29.201Z,15.43
2018-04-10T15:22:55.455Z,15.20
2018-04-10T15:25:22.524Z,13.67
2018-04-10T15:27:48.786Z,13.00
2018-04-10T15:30:15.048Z,11.47
2018-04-10T15:32:41.300Z,9.30
2018-04-10T15:35:07.592Z,8.70
2018-04-10T15:37:33.842Z,9.10
2018-04-10T15:40:00.794Z,8.30
2018-04-10T15:42:27.755Z,8.37
2018-04-10T15:44:54.047Z,7.53
2018-04-10T15:47:20.287Z,6.90
2018-04-10T15:49:47.340Z,6.90
2018-04-10T15:52:14.363Z,5.20
2018-04-10T15:54:40.685Z,5.80
2018-04-10T15:57:06.987Z,4.17
2018-04-10T15:59:33.308Z,3.57
2018-04-10T16:01:59.550Z,2.57
2018-04-10T16:04:25.813Z,2.53
2018-04-10T16:06:52.084Z,3.03
2018-04-10T16:09:18.363Z,2.73
2018-04-10T16:11:44.672Z,2.10
2018-04-10T16:14:10.902Z,2.50
2018-04-10T16:16:37.152Z,2.50
2018-04-10T16:19:03.467Z,3.20
2018-04-10T16:21:29.792Z,2.77
2018-04-10T16:23:56.125Z,2.73
2018-04-10T16:26:22.486Z,3.00
2018-04-10T16:28:49.518Z,2.50
2018-04-10T16:31:15.779Z,2.97
2018-04-10T16:33:42.045Z,3.00
2018-04-10T16:36:08.240Z,2.83
2018-04-10T16:38:34.461Z,2.80
2018-04-10T16:41:00.763Z,3.10
2018-04-10T16:43:27.034Z,2.47
2018-04-10T16:45:53.214Z,2.67
2018-04-10T16:48:19.633Z,2.40
2018-04-10T16:50:45.924Z,2.90
2018-04-10T16:53:12.227Z,2.50
2018-04-10T16:55:38.495Z,2.47
2018-04-10T16:58:04.845Z,2.20
2018-04-10T17:00:31.216Z,2.93
2018-04-10T17:02:57.624Z,2.40
2018-04-10T17:05:23.959Z,2.70
2018-04-10T17:07:50.940Z,2.63
2018-04-10T17:10:32.386Z,3.43
2018-04-10T17:12:58.637Z,2.70
2018-04-10T17:15:26.315Z,2.60
2018-04-10T17:17:52.685Z,2.90
2018-04-10T17:20:19.336Z,2.50
2018-04-10T17:22:45.606Z,2.40
2018-04-10T17:25:11.817Z,2.60
2018-04-10T17:27:39.787Z,3.20
2018-04-10T17:30:06.930Z,2.80
2018-04-10T17:32:33.976Z,3.50
2018-04-10T17:35:00.959Z,3.63
2018-04-10T17:37:27.211Z,3.03
2018-04-10T17:39:53.448Z,2.70
2018-04-10T17:42:19.666Z,2.70
2018-04-10T17:44:45.876Z,3.10
2018-04-10T17:47:12.155Z,2.33
2018-04-10T17:49:38.328Z,2.53
2018-04-10T17:52:04.666Z,2.60
2018-04-10T17:54:30.849Z,2.50
2018-04-10T17:56:58.184Z,2.10
2018-04-10T17:59:24.557Z,1.70
2018-04-10T18:01:51.887Z,1.90
2018-04-10T18:04:19.042Z,2.23
2018-04-10T18:06:45.962Z,2.43
2018-04-10T18:09:12.194Z,1.57
2018-04-10T18:11:39.299Z,1.90
2018-04-10T18:14:05.517Z,1.97
2018-04-10T18:16:31.791Z,2.33
2018-04-10T18:18:58.046Z,2.10
2018-04-10T18:21:24.442Z,1.83
2018-04-10T18:23:50.726Z,1.73
2018-04-10T18:26:17.006Z,2.30
2018-04-10T18:28:44.203Z,2.60
2018-04-10T18:31:10.477Z,2.10
2018-04-10T18:33:36.798Z,2.10
2018-04-10T18:36:03.010Z,2.30
2018-04-10T18:38:29.340Z,2.20
2018-04-10T18:40:55.759Z,2.30
2018-04-10T18:43:22.122Z,2.73
2018-04-10T18:45:48.378Z,2.10
2018-04-10T18:48:15.541Z,2.10
2018-04-10T18:50:42.522Z,2.00
2018-04-10T18:53:08.909Z,2.33
2018-04-10T18:55:35.910Z,2.13
2018-04-10T18:58:02.283Z,1.97
2018-04-10T19:00:29.296Z,2.50
2018-04-10T19:02:55.521Z,2.70
2018-04-10T19:05:21.858Z,3.10
2018-04-10T19:07:48.144Z,2.90
2018-04-10T19:10:14.404Z,3.17
2018-04-10T19:12:40.647Z,2.40
2018-04-10T19:15:07.892Z,2.50
2018-04-10T19:17:35.770Z,3.00
2018-04-10T19:20:02.139Z,2.90
2018-04-10T19:22:28.375Z,2.67
2018-04-10T19:24:54.619Z,3.23
2018-04-10T19:27:20.818Z,3.60
2018-04-10T19:29:47.251Z,3.43
2018-04-10T19:32:13.549Z,4.10
2018-04-10T19:34:39.829Z,4.30
2018-04-10T19:37:06.067Z,5.27
2018-04-10T19:39:33.073Z,4.47
2018-04-10T19:41:59.400Z,5.00
2018-04-10T19:44:26.202Z,4.63
2018-04-10T19:46:52.453Z,4.57
2018-04-10T19:49:19.593Z,4.70
2018-04-10T19:51:45.887Z,4.90
2018-04-10T19:54:19.174Z,4.43
2018-04-10T19:56:46.007Z,5.43
2018-04-10T19:59:12.274Z,4.77
2018-04-10T20:01:38.457Z,4.93
2018-04-10T20:04:04.757Z,5.20
2018-04-10T20:06:31.673Z,5.40
2018-04-10T20:08:58.160Z,5.57
2018-04-10T20:11:24.585Z,5.73
2018-04-10T20:13:50.819Z,5.60
2018-04-10T20:16:17.015Z,5.13
2018-04-10T20:18:44.008Z,5.90
2018-04-10T20:21:10.277Z,5.00
2018-04-10T20:23:36.561Z,4.43
2018-04-10T20:26:02.791Z,4.90
2018-04-10T20:28:29.118Z,4.43
2018-04-10T20:30:55.336Z,4.87
2018-04-10T20:33:21.581Z,4.33
2018-04-10T20:35:47.819Z,3.77
2018-04-10T20:38:14.080Z,4.30
2018-04-10T20:40:40.430Z,4.00
2018-04-10T20:43:07.419Z,3.87
2018-04-10T20:45:33.676Z,4.60
2018-04-10T20:48:00.777Z,4.60
2018-04-10T20:50:27.152Z,4.30
2018-04-10T20:52:54.945Z,4.07
2018-04-10T20:55:21.284Z,3.90
2018-04-10T20:57:47.533Z,3.67
2018-04-10T21:00:13.759Z,4.60
2018-04-10T21:02:39.942Z,4.40
2018-04-10T21:05:07.007Z,3.93
2018-04-10T21:07:33.225Z,4.37
2018-04-10T21:09:59.579Z,4.20
2018-04-10T21:12:25.859Z,4.33
2018-04-10T21:14:52.332Z,3.63
2018-04-10T21:17:18.521Z,3.60
2018-04-10T21:19:44.840Z,4.10
2018-04-10T21:22:10.982Z,4.57
2018-04-10T21:24:37.258Z,3.80
2018-04-10T21:27:03.496Z,4.10
2018-04-10T21:29:29.824Z,3.77
2018-04-10T21:31:56.065Z,3.63
2018-04-10T21:34:22.563Z,4.30
2018-04-10T21:36:49.427Z,4.20
2018-04-10T21:39:15.707Z,4.10
2018-04-10T21:41:42.688Z,4.30
2018-04-10T21:44:16.137Z,3.90
2018-04-10T21:46:42.499Z,4.07
2018-04-10T21:49:08.822Z,3.90
2018-04-10T21:51:36.808Z,4.20
2018-04-10T21:54:03.086Z,4.43
2018-04-10T21:56:29.450Z,3.97
2018-04-10T21:58:55.828Z,3.73
2018-04-10T22:01:22.169Z,4.00
2018-04-10T22:03:48.425Z,4.00
2018-04-10T22:06:15.452Z,4.03
2018-04-10T22:08:42.052Z,4.07
2018-04-10T22:11:08.269Z,4.03
2018-04-10T22:13:34.491Z,4.23
2018-04-10T22:16:00.674Z,4.10
2018-04-10T22:18:26.927Z,4.40
2018-04-10T22:20:53.164Z,3.83
2018-04-10T22:23:19.373Z,4.47
2018-04-10T22:25:46.381Z,3.63
2018-04-10T22:28:14.058Z,4.10
2018-04-10T22:30:40.416Z,4.37
2018-04-10T22:33:07.385Z,5.17
2018-04-10T22:35:33.815Z,4.33
2018-04-10T22:38:00.464Z,4.30
2018-04-10T22:40:26.858Z,4.50
2018-04-10T22:42:53.117Z,3.87
2018-04-10T22:45:19.347Z,4.07
2018-04-10T22:47:45.680Z,4.50
2018-04-10T22:50:13.534Z,4.23
2018-04-10T22:52:39.799Z,4.60
2018-04-10T22:55:06.747Z,4.47
2018-04-10T22:57:33.771Z,3.87
2018-04-10T23:00:00.801Z,4.53
2018-04-10T23:02:27.046Z,4.40
2018-04-10T23:04:53.605Z,4.20
2018-04-10T23:07:20.507Z,4.33
2018-04-10T23:09:46.893Z,3.70
2018-04-10T23:12:13.152Z,3.43
2018-04-10T23:14:39.510Z,3.90
2018-04-10T23:17:05.713Z,4.27
2018-04-10T23:19:31.945Z,4.60
2018-04-10T23:21:58.179Z,4.00
2018-04-10T23:24:24.408Z,4.07
2018-04-10T23:26:50.674Z,4.10
2018-04-10T23:29:18.342Z,4.30
2018-04-10T23:31:44.768Z,4.80
2018-04-10T23:34:11.071Z,4.17
2018-04-10T23:36:37.347Z,4.17
2018-04-10T23:39:04.311Z,3.87
2018-04-10T23:41:31.245Z,3.40
2018-04-10T23:43:58.418Z,4.03
2018-04-10T23:46:24.793Z,3.80
2018-04-10T23:48:51.159Z,3.73
2018-04-10T23:51:18.157Z,3.80
2018-04-10T23:53:44.504Z,3.70
2018-04-10T23:56:11.546Z,3.97
2018-04-10T23:58:37.868Z,4.40
